createdAt,value
2023-12-29T00:01:39.728Z,-1.06
2023-12-29T00:04:07.181Z,-1.00
2023-12-29T00:06:38.860Z,-0.97
2023-12-29T00:09:08.841Z,-0.96
2023-12-29T00:11:36.145Z,-1.09
2023-12-29T00:14:03.728Z,-1.20
2023-12-29T00:16:31.167Z,-1.29
2023-12-29T00:18:58.709Z,-2.06
2023-12-29T00:21:26.092Z,-1.42
2023-12-29T00:23:53.600Z,-1.43
2023-12-29T00:26:23.116Z,-1.51
2023-12-29T00:28:56.440Z,-1.56
2023-12-29T00:31:23.806Z,-1.59
2023-12-29T00:33:54.101Z,-1.73
2023-12-29T00:36:22.665Z,-1.87
2023-12-29T00:38:50.491Z,-2.58
2023-12-29T00:41:18.845Z,-2.15
2023-12-29T00:43:46.205Z,-2.23
2023-12-29T00:46:16.108Z,-2.52
2023-12-29T00:48:44.254Z,-2.73
2023-12-29T00:51:11.835Z,-2.78
2023-12-29T00:53:39.115Z,-2.78
2023-12-29T00:56:13.407Z,-2.72
2023-12-29T00:58:40.959Z,-2.66
2023-12-29T01:01:10.282Z,-2.58
2023-12-29T01:03:37.977Z,-2.55
2023-12-29T01:06:12.570Z,-2.42
2023-12-29T01:08:40.021Z,-2.32
2023-12-29T01:11:07.330Z,-2.21
2023-12-29T01:13:34.845Z,-2.13
2023-12-29T01:16:02.160Z,-2.01
2023-12-29T01:18:30.385Z,-2.10
2023-12-29T01:20:57.848Z,-2.20
2023-12-29T01:23:25.292Z,-2.29
2023-12-29T01:25:52.632Z,-2.53
2023-12-29T01:28:20.082Z,-2.48
2023-12-29T01:30:47.614Z,-2.52
2023-12-29T01:33:15.152Z,-2.59
2023-12-29T01:35:42.555Z,-2.64
2023-12-29T01:38:09.994Z,-2.67
2023-12-29T01:40:47.315Z,-2.98
2023-12-29T01:43:15.524Z,-2.83
2023-12-29T01:45:51.994Z,-2.87
2023-12-29T01:48:25.824Z,-2.90
2023-12-29T01:50:54.816Z,-2.92
2023-12-29T01:53:31.108Z,-3.31
2023-12-29T01:56:08.069Z,-2.92
2023-12-29T01:58:36.666Z,-2.92
2023-12-29T02:01:06.276Z,-2.90
2023-12-29T02:03:34.308Z,-2.88
2023-12-29T02:06:02.105Z,-2.88
2023-12-29T02:08:30.689Z,-3.48
2023-12-29T02:10:58.130Z,-2.87
2023-12-29T02:13:25.551Z,-2.88
2023-12-29T02:15:56.375Z,-2.87
2023-12-29T02:18:25.516Z,-3.43
2023-12-29T02:20:52.938Z,-2.83
2023-12-29T02:23:20.270Z,-2.79
2023-12-29T02:25:47.648Z,-2.83
2023-12-29T02:28:15.060Z,-2.74
2023-12-29T02:30:49.195Z,-2.71
2023-12-29T02:33:23.228Z,-2.70
2023-12-29T02:35:54.308Z,-2.70
2023-12-29T02:38:22.053Z,-2.65
2023-12-29T02:40:49.632Z,-2.61
2023-12-29T02:43:17.141Z,-2.59
2023-12-29T02:45:44.465Z,-2.55
2023-12-29T02:48:12.014Z,-2.47
2023-12-29T02:50:40.508Z,-2.40
2023-12-29T02:53:08.657Z,-2.42
2023-12-29T02:55:36.148Z,-3.04
2023-12-29T02:58:03.994Z,-2.47
2023-12-29T03:00:31.784Z,-2.45
2023-12-29T03:02:59.246Z,-2.55
2023-12-29T03:05:26.954Z,-2.52
2023-12-29T03:07:54.367Z,-2.57
2023-12-29T03:10:21.718Z,-2.59
2023-12-29T03:12:49.494Z,-2.63
2023-12-29T03:15:17.082Z,-3.41
2023-12-29T03:17:44.640Z,-3.50
2023-12-29T03:20:12.676Z,-2.65
2023-12-29T03:22:40.173Z,-2.66
2023-12-29T03:25:07.819Z,-2.73
2023-12-29T03:27:35.468Z,-2.63
2023-12-29T03:30:02.976Z,-2.64
2023-12-29T03:32:30.455Z,-2.81
2023-12-29T03:34:57.906Z,-2.75
2023-12-29T03:37:25.396Z,-2.78
2023-12-29T03:39:52.823Z,-2.80
2023-12-29T03:42:20.438Z,-2.76
2023-12-29T03:44:47.800Z,-2.73
2023-12-29T03:47:15.189Z,-2.73
2023-12-29T03:49:42.659Z,-2.75
2023-12-29T03:52:10.208Z,-2.73
2023-12-29T03:54:37.535Z,-2.72
2023-12-29T03:57:05.239Z,-2.74
2023-12-29T03:59:32.551Z,-2.73
2023-12-29T04:02:00.168Z,-2.70
2023-12-29T04:04:27.638Z,-2.70
2023-12-29T04:06:55.097Z,-2.68
2023-12-29T04:09:22.592Z,-2.78
2023-12-29T04:11:50.123Z,-2.70
2023-12-29T04:14:17.585Z,-2.76
2023-12-29T04:16:45.123Z,-2.75
2023-12-29T04:19:15.903Z,-2.70
2023-12-29T04:21:43.851Z,-2.68
2023-12-29T04:24:11.666Z,-2.65
2023-12-29T04:26:39.464Z,-3.49
2023-12-29T04:29:06.835Z,-2.71
2023-12-29T04:31:35.163Z,-2.76
2023-12-29T04:34:02.802Z,-2.73
2023-12-29T04:36:30.302Z,-2.70
2023-12-29T04:38:57.616Z,-3.51
2023-12-29T04:41:25.078Z,-2.66
2023-12-29T04:43:52.381Z,-2.69
2023-12-29T04:46:19.738Z,-3.41
2023-12-29T04:48:47.220Z,-2.62
2023-12-29T04:51:14.799Z,-2.48
2023-12-29T04:53:42.118Z,-2.38
2023-12-29T04:56:09.500Z,-2.26
2023-12-29T04:58:36.816Z,-2.17
2023-12-29T05:01:04.503Z,-2.08
2023-12-29T05:03:31.998Z,-1.99
2023-12-29T05:05:59.509Z,-1.94
2023-12-29T05:08:26.800Z,-1.89
2023-12-29T05:10:54.286Z,-1.77
2023-12-29T05:13:21.596Z,-1.67
2023-12-29T05:15:49.020Z,-1.60
2023-12-29T05:18:16.455Z,-2.26
2023-12-29T05:20:44.464Z,-1.67
2023-12-29T05:23:11.806Z,-1.84
2023-12-29T05:25:39.385Z,-1.14
2023-12-29T05:28:06.907Z,-0.98
2023-12-29T05:30:34.478Z,-0.86
2023-12-29T05:33:01.985Z,-0.74
2023-12-29T05:35:29.523Z,-0.69
2023-12-29T05:37:56.872Z,-0.52
2023-12-29T05:40:24.437Z,-0.41
2023-12-29T05:42:52.333Z,-0.35
2023-12-29T05:45:19.882Z,-0.27
2023-12-29T05:47:47.292Z,-0.18
2023-12-29T05:50:14.886Z,-0.01
2023-12-29T05:52:42.243Z,0.13
2023-12-29T05:55:10.164Z,0.27
2023-12-29T05:57:37.699Z,0.42
2023-12-29T06:00:06.196Z,0.55
2023-12-29T06:02:39.692Z,0.75
2023-12-29T06:05:07.489Z,0.93
2023-12-29T06:07:35.595Z,1.10
2023-12-29T06:10:03.197Z,1.25
2023-12-29T06:12:30.963Z,1.29
2023-12-29T06:14:58.435Z,1.49
2023-12-29T06:17:26.132Z,1.62
2023-12-29T06:19:54.150Z,1.73
2023-12-29T06:22:21.457Z,1.87
2023-12-29T06:24:48.976Z,2.01
2023-12-29T06:27:17.341Z,1.35
2023-12-29T06:29:44.851Z,2.24
2023-12-29T06:32:12.227Z,2.36
2023-12-29T06:34:39.842Z,2.43
2023-12-29T06:37:07.340Z,2.59
2023-12-29T06:39:34.801Z,2.72
2023-12-29T06:42:02.226Z,2.75
2023-12-29T06:44:29.670Z,2.84
2023-12-29T06:46:57.012Z,2.95
2023-12-29T06:49:24.551Z,3.12
2023-12-29T06:51:53.048Z,3.24
2023-12-29T06:54:20.621Z,2.86
2023-12-29T06:56:49.517Z,3.51
2023-12-29T06:59:17.606Z,3.76
2023-12-29T07:01:45.100Z,4.07
2023-12-29T07:04:12.795Z,4.29
2023-12-29T07:06:40.589Z,3.76
2023-12-29T07:09:09.123Z,4.71
2023-12-29T07:11:37.256Z,4.35
2023-12-29T07:14:04.658Z,5.01
2023-12-29T07:16:32.098Z,5.01
2023-12-29T07:18:59.633Z,4.98
2023-12-29T07:21:27.055Z,4.95
2023-12-29T07:23:54.390Z,4.92
2023-12-29T07:26:21.993Z,4.83
2023-12-29T07:28:49.407Z,4.66
2023-12-29T07:31:17.192Z,4.62
2023-12-29T07:33:44.648Z,4.50
2023-12-29T07:36:13.568Z,4.47
2023-12-29T07:38:42.055Z,4.32
2023-12-29T07:41:10.022Z,4.01
2023-12-29T07:43:37.378Z,3.80
2023-12-29T07:46:05.011Z,3.67
2023-12-29T07:48:32.536Z,3.71
2023-12-29T07:51:07.269Z,3.83
2023-12-29T07:53:34.910Z,3.90
2023-12-29T07:56:02.187Z,3.97
2023-12-29T07:58:30.068Z,3.88
2023-12-29T08:00:57.504Z,3.78
2023-12-29T08:03:25.005Z,3.76
2023-12-29T08:05:52.447Z,3.82
2023-12-29T08:08:19.898Z,3.40
2023-12-29T08:10:47.207Z,3.13
2023-12-29T08:13:14.717Z,3.62
2023-12-29T08:15:42.133Z,3.65
2023-12-29T08:18:09.820Z,3.75
2023-12-29T08:20:37.294Z,3.87
2023-12-29T08:23:04.931Z,3.68
2023-12-29T08:25:32.369Z,4.07
2023-12-29T08:28:00.263Z,4.31
2023-12-29T08:30:27.900Z,4.54
2023-12-29T08:32:55.337Z,4.75
2023-12-29T08:35:23.166Z,4.94
2023-12-29T08:37:50.477Z,5.10
2023-12-29T08:40:17.988Z,5.19
2023-12-29T08:42:45.440Z,5.21
2023-12-29T08:45:12.904Z,5.21
2023-12-29T08:47:40.393Z,5.25
2023-12-29T08:50:08.275Z,5.30
2023-12-29T08:52:35.730Z,5.29
2023-12-29T08:55:03.097Z,5.26
2023-12-29T08:57:30.632Z,5.20
2023-12-29T08:59:57.911Z,5.28
2023-12-29T09:02:25.291Z,5.33
2023-12-29T09:04:52.773Z,5.35
2023-12-29T09:07:20.189Z,5.32
2023-12-29T09:09:47.584Z,5.32
2023-12-29T09:12:15.090Z,5.36
2023-12-29T09:14:42.427Z,5.35
2023-12-29T09:17:09.846Z,5.39
2023-12-29T09:19:40.355Z,5.40
2023-12-29T09:22:08.626Z,5.41
2023-12-29T09:24:36.145Z,5.47
2023-12-29T09:27:04.331Z,5.55
2023-12-29T09:29:54.310Z,5.53
2023-12-29T09:32:21.788Z,5.65
2023-12-29T09:34:49.250Z,5.70
2023-12-29T09:37:16.865Z,5.76
2023-12-29T09:39:44.330Z,5.89
2023-12-29T09:42:25.442Z,6.38
2023-12-29T09:44:53.730Z,7.86
2023-12-29T09:47:25.814Z,9.06
2023-12-29T09:49:56.788Z,10.06
2023-12-29T09:52:24.397Z,11.05
2023-12-29T09:54:53.546Z,11.57
2023-12-29T19:43:49.181Z,-1.69
2023-12-29T19:46:18.038Z,-1.43
2023-12-29T19:48:46.431Z,-1.19
2023-12-29T19:51:13.816Z,-1.43
2023-12-29T19:53:41.116Z,-0.78
2023-12-29T19:56:08.476Z,-0.65
2023-12-29T19:58:36.033Z,-0.59
2023-12-29T20:01:05.815Z,-0.57
2023-12-29T20:03:33.175Z,-0.50
2023-12-29T20:06:00.757Z,-0.38
2023-12-29T20:08:28.293Z,-0.77
2023-12-29T20:10:55.675Z,-0.24
2023-12-29T20:13:23.218Z,-0.18
2023-12-29T20:15:50.572Z,-0.23
2023-12-29T20:18:18.105Z,-0.14
2023-12-29T20:20:45.422Z,-0.56
2023-12-29T20:23:13.031Z,-0.13
2023-12-29T20:25:41.907Z,-0.19
2023-12-29T20:28:09.490Z,-0.33
2023-12-29T20:30:37.179Z,-0.36
2023-12-29T20:33:05.111Z,-0.20
2023-12-29T20:35:33.095Z,-0.39
2023-12-29T20:38:00.544Z,-0.27
2023-12-29T20:40:28.083Z,-0.32
2023-12-29T20:42:56.889Z,-0.39
2023-12-29T20:45:24.131Z,-0.29
2023-12-29T20:47:51.745Z,-0.35
2023-12-29T20:50:19.341Z,-0.26
2023-12-29T20:52:46.724Z,-0.38
2023-12-29T20:55:14.229Z,-0.48
2023-12-29T20:57:41.887Z,-0.56
2023-12-29T21:00:09.611Z,-0.49
2023-12-29T21:02:37.584Z,-0.78
2023-12-29T21:05:10.179Z,-0.65
2023-12-29T21:07:37.784Z,-0.65
2023-12-29T21:10:05.715Z,-0.81
2023-12-29T21:12:34.340Z,-0.74
2023-12-29T21:15:02.000Z,-0.73
2023-12-29T21:17:30.656Z,-0.73
2023-12-29T21:19:58.316Z,-0.74
2023-12-29T21:22:25.736Z,-0.77
2023-12-29T21:24:53.426Z,-1.26
2023-12-29T21:27:20.970Z,-0.73
2023-12-29T21:29:55.128Z,-1.05
2023-12-29T21:32:24.042Z,-0.71
2023-12-29T21:34:51.641Z,-0.68
2023-12-29T21:37:19.103Z,-0.70
2023-12-29T21:39:46.573Z,-0.73
2023-12-29T21:42:14.292Z,-0.78
2023-12-29T21:44:43.276Z,-0.82
2023-12-29T21:47:10.916Z,-0.94
2023-12-29T21:49:40.781Z,-0.89
2023-12-29T21:52:08.532Z,-0.92
2023-12-29T21:54:37.088Z,-1.50
2023-12-29T21:57:05.191Z,-0.98
2023-12-29T21:59:33.968Z,-1.04
2023-12-29T22:02:01.492Z,-1.08
2023-12-29T22:04:28.927Z,-1.11
2023-12-29T22:06:56.300Z,-1.08
2023-12-29T22:09:24.092Z,-1.04
2023-12-29T22:11:51.592Z,-1.11
2023-12-29T22:14:18.934Z,-1.06
2023-12-29T22:16:46.621Z,-1.09
2023-12-29T22:19:13.996Z,-1.08
2023-12-29T22:21:41.368Z,-1.10
2023-12-29T22:24:12.437Z,-1.88
2023-12-29T22:26:41.584Z,-1.54
2023-12-29T22:29:08.985Z,-1.45
2023-12-29T22:31:36.414Z,-1.37
2023-12-29T22:34:04.023Z,-1.66
2023-12-29T22:36:31.738Z,-1.33
2023-12-29T22:38:59.088Z,-1.46
2023-12-29T22:41:26.722Z,-1.36
2023-12-29T22:43:54.088Z,-1.38
2023-12-29T22:46:24.040Z,-1.46
2023-12-29T22:48:54.209Z,-1.35
2023-12-29T22:51:21.991Z,-1.37
2023-12-29T22:53:49.513Z,-1.39
2023-12-29T22:56:16.894Z,-1.40
2023-12-29T22:58:44.486Z,-1.92
2023-12-29T23:01:12.426Z,-1.91
2023-12-29T23:03:40.085Z,-1.37
2023-12-29T23:06:07.744Z,-1.38
2023-12-29T23:08:35.470Z,-1.68
2023-12-29T23:11:02.803Z,-1.73
2023-12-29T23:13:30.445Z,-1.39
2023-12-29T23:15:58.395Z,-1.40
2023-12-29T23:18:25.929Z,-1.39
2023-12-29T23:20:54.191Z,-1.43
2023-12-29T23:23:21.664Z,-1.46
2023-12-29T23:25:48.962Z,-1.50
2023-12-29T23:28:16.501Z,-1.56
2023-12-29T23:30:43.806Z,-1.59
2023-12-29T23:33:11.874Z,-1.64
2023-12-29T23:35:39.468Z,-1.65
2023-12-29T23:38:07.014Z,-1.65
2023-12-29T23:40:34.418Z,-1.68
2023-12-29T23:43:02.249Z,-1.73
2023-12-29T23:45:29.684Z,-1.76
2023-12-29T23:47:57.219Z,-1.76
2023-12-29T23:50:25.142Z,-1.80
2023-12-29T23:52:54.056Z,-1.89
2023-12-29T23:55:24.382Z,-1.88
2023-12-29T23:57:51.993Z,-1.88
